sensor_id;sensor_type;location;lat;lon;timestamp;temperature;humidity
54518;DHT22;40423;53.176;6.002;2023-03-01T00:01:35;1.20;99.90
54518;DHT22;40423;53.176;6.002;2023-03-01T00:04:01;1.20;99.90
54518;DHT22;40423;53.176;6.002;2023-03-01T00:06:27;1.20;99.90
54518;DHT22;40423;53.176;6.002;2023-03-01T00:08:54;1.10;99.90
54518;DHT22;40423;53.176;6.002;2023-03-01T00:11:23;1.10;99.90
54518;DHT22;40423;53.176;6.002;2023-03-01T00:13:52;1.00;99.90
54518;DHT22;40423;53.176;6.002;2023-03-01T00:16:21;1.00;99.90
54518;DHT22;40423;53.176;6.002;2023-03-01T00:18:47;1.00;99.90
54518;DHT22;40423;53.176;6.002;2023-03-01T00:21:14;0.90;99.90
54518;DHT22;40423;53.176;6.002;2023-03-01T00:23:40;1.00;99.90
54518;DHT22;40423;53.176;6.002;2023-03-01T00:26:08;0.90;99.90
54518;DHT22;40423;53.176;6.002;2023-03-01T00:28:34;0.90;99.90
54518;DHT22;40423;53.176;6.002;2023-03-01T00:31:09;0.90;99.90
54518;DHT22;40423;53.176;6.002;2023-03-01T00:33:35;0.90;99.90
54518;DHT22;40423;53.176;6.002;2023-03-01T00:36:01;0.90;99.90
54518;DHT22;40423;53.176;6.002;2023-03-01T00:38:27;0.90;99.90
54518;DHT22;40423;53.176;6.002;2023-03-01T00:40:54;0.90;99.90
54518;DHT22;40423;53.176;6.002;2023-03-01T00:45:54;0.90;99.90
54518;DHT22;40423;53.176;6.002;2023-03-01T00:48:20;0.80;99.90
54518;DHT22;40423;53.176;6.002;2023-03-01T00:50:46;0.80;99.90
54518;DHT22;40423;53.176;6.002;2023-03-01T00:53:11;0.80;99.90
54518;DHT22;40423;53.176;6.002;2023-03-01T00:55:37;0.80;99.90
54518;DHT22;40423;53.176;6.002;2023-03-01T00:58:03;0.70;99.90
54518;DHT22;40423;53.176;6.002;2023-03-01T01:00:28;0.70;99.90
54518;DHT22;40423;53.176;6.002;2023-03-01T01:02:54;0.70;99.90
54518;DHT22;40423;53.176;6.002;2023-03-01T01:05:20;0.60;99.90
54518;DHT22;40423;53.176;6.002;2023-03-01T01:07:47;0.60;99.90
54518;DHT22;40423;53.176;6.002;2023-03-01T01:10:13;0.60;99.90
54518;DHT22;40423;53.176;6.002;2023-03-01T01:12:43;0.60;99.90
54518;DHT22;40423;53.176;6.002;2023-03-01T01:15:09;0.50;99.90
54518;DHT22;40423;53.176;6.002;2023-03-01T01:17:38;0.50;99.90
54518;DHT22;40423;53.176;6.002;2023-03-01T01:20:04;0.50;99.90
54518;DHT22;40423;53.176;6.002;2023-03-01T01:22:30;0.40;99.90
54518;DHT22;40423;53.176;6.002;2023-03-01T01:24:55;0.40;99.90
54518;DHT22;40423;53.176;6.002;2023-03-01T01:27:21;0.40;99.90
54518;DHT22;40423;53.176;6.002;2023-03-01T01:29:47;0.40;99.90
54518;DHT22;40423;53.176;6.002;2023-03-01T01:32:13;0.40;99.90
54518;DHT22;40423;53.176;6.002;2023-03-01T01:34:38;0.30;99.90
54518;DHT22;40423;53.176;6.002;2023-03-01T01:37:04;0.30;99.90
54518;DHT22;40423;53.176;6.002;2023-03-01T01:39:34;0.40;99.90
54518;DHT22;40423;53.176;6.002;2023-03-01T01:42:00;0.40;99.90
54518;DHT22;40423;53.176;6.002;2023-03-01T01:44:28;0.40;99.90
54518;DHT22;40423;53.176;6.002;2023-03-01T01:47:00;0.40;99.90
54518;DHT22;40423;53.176;6.002;2023-03-01T01:49:37;0.30;99.90
54518;DHT22;40423;53.176;6.002;2023-03-01T01:54:37;0.20;99.90
54518;DHT22;40423;53.176;6.002;2023-03-01T01:57:09;0.20;99.90
54518;DHT22;40423;53.176;6.002;2023-03-01T01:59:36;0.20;99.90
54518;DHT22;40423;53.176;6.002;2023-03-01T02:02:03;0.20;99.90
54518;DHT22;40423;53.176;6.002;2023-03-01T02:04:31;0.10;99.90
54518;DHT22;40423;53.176;6.002;2023-03-01T02:09:54;0.00;99.90
54518;DHT22;40423;53.176;6.002;2023-03-01T02:12:23;-0.10;99.90
54518;DHT22;40423;53.176;6.002;2023-03-01T02:14:49;0.00;99.90
54518;DHT22;40423;53.176;6.002;2023-03-01T02:17:16;0.00;99.90
54518;DHT22;40423;53.176;6.002;2023-03-01T02:22:32;-0.10;99.90
54518;DHT22;40423;53.176;6.002;2023-03-01T02:27:45;0.00;99.90
54518;DHT22;40423;53.176;6.002;2023-03-01T02:30:15;0.00;99.90
54518;DHT22;40423;53.176;6.002;2023-03-01T02:32:41;-0.10;99.90
54518;DHT22;40423;53.176;6.002;2023-03-01T02:35:13;-0.10;99.90
54518;DHT22;40423;53.176;6.002;2023-03-01T02:37:40;-0.30;99.90
54518;DHT22;40423;53.176;6.002;2023-03-01T02:40:11;-0.30;99.90
54518;DHT22;40423;53.176;6.002;2023-03-01T02:42:50;-0.40;99.90
54518;DHT22;40423;53.176;6.002;2023-03-01T02:45:17;-0.40;99.90
54518;DHT22;40423;53.176;6.002;2023-03-01T02:47:43;-0.50;99.90
54518;DHT22;40423;53.176;6.002;2023-03-01T02:51:02;-0.60;99.90
54518;DHT22;40423;53.176;6.002;2023-03-01T02:55:39;-0.70;99.90
54518;DHT22;40423;53.176;6.002;2023-03-01T02:58:05;-0.70;99.90
54518;DHT22;40423;53.176;6.002;2023-03-01T03:00:40;-0.60;99.90
54518;DHT22;40423;53.176;6.002;2023-03-01T03:03:13;-0.60;99.90
54518;DHT22;40423;53.176;6.002;2023-03-01T03:05:39;-0.60;99.90
54518;DHT22;40423;53.176;6.002;2023-03-01T03:08:05;-0.80;99.90
54518;DHT22;40423;53.176;6.002;2023-03-01T03:10:36;-0.80;99.90
54518;DHT22;40423;53.176;6.002;2023-03-01T03:13:08;-0.70;99.90
54518;DHT22;40423;53.176;6.002;2023-03-01T03:15:34;-0.70;99.90
54518;DHT22;40423;53.176;6.002;2023-03-01T03:18:03;-0.60;99.90
54518;DHT22;40423;53.176;6.002;2023-03-01T03:20:29;-0.60;99.90
54518;DHT22;40423;53.176;6.002;2023-03-01T03:22:58;-0.60;99.90
54518;DHT22;40423;53.176;6.002;2023-03-01T03:25:25;-0.60;99.90
54518;DHT22;40423;53.176;6.002;2023-03-01T03:27:51;-0.70;99.90
54518;DHT22;40423;53.176;6.002;2023-03-01T03:30:25;-0.60;99.90
54518;DHT22;40423;53.176;6.002;2023-03-01T03:32:51;-0.60;99.90
54518;DHT22;40423;53.176;6.002;2023-03-01T03:35:29;-0.60;99.90
54518;DHT22;40423;53.176;6.002;2023-03-01T03:37:59;-0.70;99.90
54518;DHT22;40423;53.176;6.002;2023-03-01T03:40:39;-0.70;99.90
54518;DHT22;40423;53.176;6.002;2023-03-01T03:43:14;-0.70;99.90
54518;DHT22;40423;53.176;6.002;2023-03-01T03:45:41;-0.70;99.90
54518;DHT22;40423;53.176;6.002;2023-03-01T03:48:08;-0.70;99.90
54518;DHT22;40423;53.176;6.002;2023-03-01T03:50:39;-0.60;99.90
54518;DHT22;40423;53.176;6.002;2023-03-01T03:53:08;-0.60;99.90
54518;DHT22;40423;53.176;6.002;2023-03-01T03:55:34;-0.60;99.90
54518;DHT22;40423;53.176;6.002;2023-03-01T03:58:05;-0.60;99.90
54518;DHT22;40423;53.176;6.002;2023-03-01T04:00:40;-0.70;99.90
54518;DHT22;40423;53.176;6.002;2023-03-01T04:03:06;-0.70;99.90
54518;DHT22;40423;53.176;6.002;2023-03-01T04:05:33;-0.70;99.90
54518;DHT22;40423;53.176;6.002;2023-03-01T04:07:59;-0.80;99.90
54518;DHT22;40423;53.176;6.002;2023-03-01T04:10:30;-0.90;99.90
54518;DHT22;40423;53.176;6.002;2023-03-01T04:12:56;-1.10;99.90
54518;DHT22;40423;53.176;6.002;2023-03-01T04:15:23;-1.20;99.90
54518;DHT22;40423;53.176;6.002;2023-03-01T04:17:51;-1.30;99.90
54518;DHT22;40423;53.176;6.002;2023-03-01T04:20:23;-1.30;99.90
54518;DHT22;40423;53.176;6.002;2023-03-01T04:25:41;-1.20;99.90
54518;DHT22;40423;53.176;6.002;2023-03-01T04:28:08;-1.20;99.90
54518;DHT22;40423;53.176;6.002;2023-03-01T04:30:35;-1.10;99.90
54518;DHT22;40423;53.176;6.002;2023-03-01T04:33:03;-1.20;99.90
54518;DHT22;40423;53.176;6.002;2023-03-01T04:35:30;-1.20;99.90
54518;DHT22;40423;53.176;6.002;2023-03-01T04:37:56;-1.20;99.90
54518;DHT22;40423;53.176;6.002;2023-03-01T04:40:22;-1.20;99.90
54518;DHT22;40423;53.176;6.002;2023-03-01T04:42:47;-1.20;99.90
54518;DHT22;40423;53.176;6.002;2023-03-01T04:45:13;-1.30;99.90
54518;DHT22;40423;53.176;6.002;2023-03-01T04:47:40;-1.20;99.90
54518;DHT22;40423;53.176;6.002;2023-03-01T04:50:07;-1.30;99.90
54518;DHT22;40423;53.176;6.002;2023-03-01T04:52:33;-1.30;99.90
54518;DHT22;40423;53.176;6.002;2023-03-01T04:54:59;-1.30;99.90
54518;DHT22;40423;53.176;6.002;2023-03-01T04:57:25;-1.40;99.90
54518;DHT22;40423;53.176;6.002;2023-03-01T04:59:50;-1.30;99.90
54518;DHT22;40423;53.176;6.002;2023-03-01T05:02:16;-1.30;99.90
54518;DHT22;40423;53.176;6.002;2023-03-01T05:04:42;-1.30;99.90
54518;DHT22;40423;53.176;6.002;2023-03-01T05:07:07;-1.40;99.90
54518;DHT22;40423;53.176;6.002;2023-03-01T05:09:33;-1.50;99.90
54518;DHT22;40423;53.176;6.002;2023-03-01T05:11:59;-1.50;99.90
54518;DHT22;40423;53.176;6.002;2023-03-01T05:14:25;-1.50;99.90
54518;DHT22;40423;53.176;6.002;2023-03-01T05:16:50;-1.40;99.90
54518;DHT22;40423;53.176;6.002;2023-03-01T05:19:16;-1.40;99.90
54518;DHT22;40423;53.176;6.002;2023-03-01T05:21:43;-1.40;99.90
54518;DHT22;40423;53.176;6.002;2023-03-01T05:24:28;-1.30;99.90
54518;DHT22;40423;53.176;6.002;2023-03-01T05:26:54;-1.30;99.90
54518;DHT22;40423;53.176;6.002;2023-03-01T05:29:23;-1.30;99.90
54518;DHT22;40423;53.176;6.002;2023-03-01T05:32:00;-1.30;99.90
54518;DHT22;40423;53.176;6.002;2023-03-01T05:34:31;-1.30;99.90
54518;DHT22;40423;53.176;6.002;2023-03-01T05:36:58;-1.30;99.90
54518;DHT22;40423;53.176;6.002;2023-03-01T05:39:26;-1.30;99.90
54518;DHT22;40423;53.176;6.002;2023-03-01T05:41:53;-1.30;99.90
54518;DHT22;40423;53.176;6.002;2023-03-01T05:44:20;-1.30;99.90
54518;DHT22;40423;53.176;6.002;2023-03-01T05:46:46;-1.30;99.90
54518;DHT22;40423;53.176;6.002;2023-03-01T05:49:12;-1.30;99.90
54518;DHT22;40423;53.176;6.002;2023-03-01T05:51:42;-1.30;99.90
54518;DHT22;40423;53.176;6.002;2023-03-01T05:54:09;-1.30;99.90
54518;DHT22;40423;53.176;6.002;2023-03-01T05:56:36;-1.40;99.90
54518;DHT22;40423;53.176;6.002;2023-03-01T05:59:03;-1.40;99.90
54518;DHT22;40423;53.176;6.002;2023-03-01T06:01:31;-1.40;99.90
54518;DHT22;40423;53.176;6.002;2023-03-01T06:03:57;-1.40;99.90
54518;DHT22;40423;53.176;6.002;2023-03-01T06:06:23;-1.40;99.90
54518;DHT22;40423;53.176;6.002;2023-03-01T06:08:49;-1.40;99.90
54518;DHT22;40423;53.176;6.002;2023-03-01T06:11:15;-1.40;99.90
54518;DHT22;40423;53.176;6.002;2023-03-01T06:13:42;-1.50;99.90
54518;DHT22;40423;53.176;6.002;2023-03-01T06:16:08;-1.50;99.90
54518;DHT22;40423;53.176;6.002;2023-03-01T06:18:34;-1.50;99.90
54518;DHT22;40423;53.176;6.002;2023-03-01T06:20:59;-1.50;99.90
54518;DHT22;40423;53.176;6.002;2023-03-01T06:23:25;-1.50;99.90
54518;DHT22;40423;53.176;6.002;2023-03-01T06:25:51;-1.50;99.90
54518;DHT22;40423;53.176;6.002;2023-03-01T06:28:17;-1.50;99.90
54518;DHT22;40423;53.176;6.002;2023-03-01T06:30:43;-1.60;99.90
54518;DHT22;40423;53.176;6.002;2023-03-01T06:33:08;-1.60;99.90
54518;DHT22;40423;53.176;6.002;2023-03-01T06:35:34;-1.50;99.90
54518;DHT22;40423;53.176;6.002;2023-03-01T06:38:01;-1.50;99.90
54518;DHT22;40423;53.176;6.002;2023-03-01T06:40:28;-1.50;99.90
54518;DHT22;40423;53.176;6.002;2023-03-01T06:42:54;-1.50;99.90
54518;DHT22;40423;53.176;6.002;2023-03-01T06:45:20;-1.50;99.90
54518;DHT22;40423;53.176;6.002;2023-03-01T06:47:46;-1.50;99.90
54518;DHT22;40423;53.176;6.002;2023-03-01T06:50:13;-1.50;99.90
54518;DHT22;40423;53.176;6.002;2023-03-01T06:52:39;-1.50;99.90
54518;DHT22;40423;53.176;6.002;2023-03-01T06:55:05;-1.60;99.90
54518;DHT22;40423;53.176;6.002;2023-03-01T06:57:32;-1.60;99.90
54518;DHT22;40423;53.176;6.002;2023-03-01T06:59:58;-1.60;99.90
54518;DHT22;40423;53.176;6.002;2023-03-01T07:02:24;-1.60;99.90
54518;DHT22;40423;53.176;6.002;2023-03-01T07:04:50;-1.60;99.90
54518;DHT22;40423;53.176;6.002;2023-03-01T07:07:17;-1.60;99.90
54518;DHT22;40423;53.176;6.002;2023-03-01T07:09:44;-1.40;99.90
54518;DHT22;40423;53.176;6.002;2023-03-01T07:12:11;-1.30;99.90
54518;DHT22;40423;53.176;6.002;2023-03-01T07:14:37;-1.20;99.90
54518;DHT22;40423;53.176;6.002;2023-03-01T07:17:03;-1.00;99.90
54518;DHT22;40423;53.176;6.002;2023-03-01T07:19:28;-0.90;99.90
54518;DHT22;40423;53.176;6.002;2023-03-01T07:21:54;-0.70;99.90
54518;DHT22;40423;53.176;6.002;2023-03-01T07:24:21;-0.30;99.90
54518;DHT22;40423;53.176;6.002;2023-03-01T07:26:51;0.10;99.90
54518;DHT22;40423;53.176;6.002;2023-03-01T07:29:17;0.00;99.90
54518;DHT22;40423;53.176;6.002;2023-03-01T07:31:43;-0.20;99.90
54518;DHT22;40423;53.176;6.002;2023-03-01T07:34:09;-0.40;99.90
54518;DHT22;40423;53.176;6.002;2023-03-01T07:36:36;-0.50;99.90
54518;DHT22;40423;53.176;6.002;2023-03-01T07:39:02;-0.50;99.90
54518;DHT22;40423;53.176;6.002;2023-03-01T07:41:29;-0.50;99.90
54518;DHT22;40423;53.176;6.002;2023-03-01T07:43:55;-0.40;99.90
54518;DHT22;40423;53.176;6.002;2023-03-01T07:46:21;-0.40;99.90
54518;DHT22;40423;53.176;6.002;2023-03-01T07:48:47;-0.30;99.90
54518;DHT22;40423;53.176;6.002;2023-03-01T07:51:13;-0.30;99.90
54518;DHT22;40423;53.176;6.002;2023-03-01T07:53:38;-0.30;99.90
54518;DHT22;40423;53.176;6.002;2023-03-01T07:56:11;-0.20;99.90
54518;DHT22;40423;53.176;6.002;2023-03-01T07:58:39;-0.20;99.90
54518;DHT22;40423;53.176;6.002;2023-03-01T08:01:07;-0.10;99.90
54518;DHT22;40423;53.176;6.002;2023-03-01T08:03:34;0.00;99.90
54518;DHT22;40423;53.176;6.002;2023-03-01T08:06:01;0.10;99.90
54518;DHT22;40423;53.176;6.002;2023-03-01T08:08:27;0.20;99.90
54518;DHT22;40423;53.176;6.002;2023-03-01T08:10:56;0.40;99.90
54518;DHT22;40423;53.176;6.002;2023-03-01T08:13:22;0.70;99.90
54518;DHT22;40423;53.176;6.002;2023-03-01T08:15:49;0.60;99.90
54518;DHT22;40423;53.176;6.002;2023-03-01T08:18:16;0.70;99.90
54518;DHT22;40423;53.176;6.002;2023-03-01T08:20:41;0.80;99.90
54518;DHT22;40423;53.176;6.002;2023-03-01T08:23:07;0.90;99.90
54518;DHT22;40423;53.176;6.002;2023-03-01T08:25:33;1.00;99.90
54518;DHT22;40423;53.176;6.002;2023-03-01T08:27:59;1.10;99.90
54518;DHT22;40423;53.176;6.002;2023-03-01T08:30:25;1.30;99.90
54518;DHT22;40423;53.176;6.002;2023-03-01T08:32:51;1.50;99.90
54518;DHT22;40423;53.176;6.002;2023-03-01T08:35:17;1.60;99.90
54518;DHT22;40423;53.176;6.002;2023-03-01T08:37:43;1.80;99.90
54518;DHT22;40423;53.176;6.002;2023-03-01T08:40:10;1.90;99.90
54518;DHT22;40423;53.176;6.002;2023-03-01T08:42:39;2.00;99.90
54518;DHT22;40423;53.176;6.002;2023-03-01T08:45:05;2.20;99.90
54518;DHT22;40423;53.176;6.002;2023-03-01T08:47:31;2.30;99.90
54518;DHT22;40423;53.176;6.002;2023-03-01T08:49:59;2.40;99.90
54518;DHT22;40423;53.176;6.002;2023-03-01T08:52:25;2.50;99.90
54518;DHT22;40423;53.176;6.002;2023-03-01T08:54:51;2.60;99.90
54518;DHT22;40423;53.176;6.002;2023-03-01T08:57:17;2.60;99.90
54518;DHT22;40423;53.176;6.002;2023-03-01T08:59:42;2.90;99.90
54518;DHT22;40423;53.176;6.002;2023-03-01T09:02:14;3.00;99.90
54518;DHT22;40423;53.176;6.002;2023-03-01T09:04:40;3.10;99.90
54518;DHT22;40423;53.176;6.002;2023-03-01T09:07:06;3.20;99.90
54518;DHT22;40423;53.176;6.002;2023-03-01T09:09:32;3.30;99.90
54518;DHT22;40423;53.176;6.002;2023-03-01T09:11:58;3.40;99.90
54518;DHT22;40423;53.176;6.002;2023-03-01T09:14:24;3.60;99.90
54518;DHT22;40423;53.176;6.002;2023-03-01T09:16:50;3.70;99.90
54518;DHT22;40423;53.176;6.002;2023-03-01T09:19:16;3.80;99.90
54518;DHT22;40423;53.176;6.002;2023-03-01T09:21:42;3.80;99.90
54518;DHT22;40423;53.176;6.002;2023-03-01T09:24:18;3.90;99.90
54518;DHT22;40423;53.176;6.002;2023-03-01T09:26:44;4.10;99.90
54518;DHT22;40423;53.176;6.002;2023-03-01T09:29:11;4.20;99.90
54518;DHT22;40423;53.176;6.002;2023-03-01T09:31:37;4.40;99.90
54518;DHT22;40423;53.176;6.002;2023-03-01T09:34:04;4.50;99.90
54518;DHT22;40423;53.176;6.002;2023-03-01T09:36:30;4.60;99.90
54518;DHT22;40423;53.176;6.002;2023-03-01T09:38:57;4.70;99.90
54518;DHT22;40423;53.176;6.002;2023-03-01T09:44:37;4.90;99.90
54518;DHT22;40423;53.176;6.002;2023-03-01T09:47:04;5.10;99.90
54518;DHT22;40423;53.176;6.002;2023-03-01T09:49:33;5.30;99.90
54518;DHT22;40423;53.176;6.002;2023-03-01T09:52:18;5.40;99.90
54518;DHT22;40423;53.176;6.002;2023-03-01T09:54:47;5.60;99.90
54518;DHT22;40423;53.176;6.002;2023-03-01T09:57:26;5.70;99.90
54518;DHT22;40423;53.176;6.002;2023-03-01T10:10:58;6.40;99.90
54518;DHT22;40423;53.176;6.002;2023-03-01T10:13:33;6.60;99.90
54518;DHT22;40423;53.176;6.002;2023-03-01T10:16:14;6.70;99.90
54518;DHT22;40423;53.176;6.002;2023-03-01T10:18:43;6.80;99.90
54518;DHT22;40423;53.176;6.002;2023-03-01T10:21:17;6.90;99.90
54518;DHT22;40423;53.176;6.002;2023-03-01T10:23:44;7.00;99.90
54518;DHT22;40423;53.176;6.002;2023-03-01T10:26:36;7.20;99.90
54518;DHT22;40423;53.176;6.002;2023-03-01T10:29:09;7.30;99.90
54518;DHT22;40423;53.176;6.002;2023-03-01T10:34:21;7.50;99.90
54518;DHT22;40423;53.176;6.002;2023-03-01T10:36:51;7.70;99.90
54518;DHT22;40423;53.176;6.002;2023-03-01T10:39:23;7.90;99.90
54518;DHT22;40423;53.176;6.002;2023-03-01T10:42:45;8.10;99.90
54518;DHT22;40423;53.176;6.002;2023-03-01T10:50:44;8.30;99.90
54518;DHT22;40423;53.176;6.002;2023-03-01T10:53:23;8.50;99.90
54518;DHT22;40423;53.176;6.002;2023-03-01T10:56:00;8.60;99.90
54518;DHT22;40423;53.176;6.002;2023-03-01T10:58:27;8.60;99.90
54518;DHT22;40423;53.176;6.002;2023-03-01T11:00:54;8.70;99.90
54518;DHT22;40423;53.176;6.002;2023-03-01T11:03:37;8.70;99.90
54518;DHT22;40423;53.176;6.002;2023-03-01T11:08:47;9.00;99.90
54518;DHT22;40423;53.176;6.002;2023-03-01T11:11:23;9.00;99.90
54518;DHT22;40423;53.176;6.002;2023-03-01T11:13:57;9.00;99.90
54518;DHT22;40423;53.176;6.002;2023-03-01T11:16:35;9.00;99.90
54518;DHT22;40423;53.176;6.002;2023-03-01T11:19:21;9.00;99.90
54518;DHT22;40423;53.176;6.002;2023-03-01T11:22:01;9.20;99.90
54518;DHT22;40423;53.176;6.002;2023-03-01T11:27:04;9.30;99.90
54518;DHT22;40423;53.176;6.002;2023-03-01T11:29:41;9.30;99.90
54518;DHT22;40423;53.176;6.002;2023-03-01T11:32:11;9.40;99.90
54518;DHT22;40423;53.176;6.002;2023-03-01T11:34:54;9.50;99.90
54518;DHT22;40423;53.176;6.002;2023-03-01T11:37:42;9.60;99.90
54518;DHT22;40423;53.176;6.002;2023-03-01T11:43:12;9.60;99.90
54518;DHT22;40423;53.176;6.002;2023-03-01T11:51:31;9.70;99.90
54518;DHT22;40423;53.176;6.002;2023-03-01T11:57:35;9.80;99.90
54518;DHT22;40423;53.176;6.002;2023-03-01T12:08:45;10.20;99.90
54518;DHT22;40423;53.176;6.002;2023-03-01T12:22:02;10.10;99.00
54518;DHT22;40423;53.176;6.002;2023-03-01T12:24:36;10.30;99.40
54518;DHT22;40423;53.176;6.002;2023-03-01T12:27:36;10.20;98.70
54518;DHT22;40423;53.176;6.002;2023-03-01T12:30:39;10.30;98.90
54518;DHT22;40423;53.176;6.002;2023-03-01T12:36:27;10.40;98.70
54518;DHT22;40423;53.176;6.002;2023-03-01T12:49:36;10.80;98.30
54518;DHT22;40423;53.176;6.002;2023-03-01T12:52:16;10.90;98.30
54518;DHT22;40423;53.176;6.002;2023-03-01T12:54:44;10.80;97.60
54518;DHT22;40423;53.176;6.002;2023-03-01T12:57:28;10.70;96.50
54518;DHT22;40423;53.176;6.002;2023-03-01T13:00:06;10.70;97.80
54518;DHT22;40423;53.176;6.002;2023-03-01T13:10:57;10.70;97.10
54518;DHT22;40423;53.176;6.002;2023-03-01T13:13:27;10.70;96.70
54518;DHT22;40423;53.176;6.002;2023-03-01T13:15:53;10.70;96.80
54518;DHT22;40423;53.176;6.002;2023-03-01T13:20:47;10.50;96.70
54518;DHT22;40423;53.176;6.002;2023-03-01T13:23:35;10.70;96.80
54518;DHT22;40423;53.176;6.002;2023-03-01T13:26:06;10.70;95.90
54518;DHT22;40423;53.176;6.002;2023-03-01T13:31:09;10.80;95.80
54518;DHT22;40423;53.176;6.002;2023-03-01T13:33:42;10.70;96.10
54518;DHT22;40423;53.176;6.002;2023-03-01T13:36:09;10.60;96.20
54518;DHT22;40423;53.176;6.002;2023-03-01T13:39:29;10.70;96.10
54518;DHT22;40423;53.176;6.002;2023-03-01T13:41:58;10.50;96.10
54518;DHT22;40423;53.176;6.002;2023-03-01T13:44:36;10.40;96.50
54518;DHT22;40423;53.176;6.002;2023-03-01T13:50:03;10.30;96.50
54518;DHT22;40423;53.176;6.002;2023-03-01T13:54:55;10.40;96.60
54518;DHT22;40423;53.176;6.002;2023-03-01T13:57:26;10.50;97.00
54518;DHT22;40423;53.176;6.002;2023-03-01T13:59:55;10.60;96.90
54518;DHT22;40423;53.176;6.002;2023-03-01T14:02:20;10.60;96.50
54518;DHT22;40423;53.176;6.002;2023-03-01T14:04:57;10.60;96.50
54518;DHT22;40423;53.176;6.002;2023-03-01T14:07:25;10.50;96.50
54518;DHT22;40423;53.176;6.002;2023-03-01T14:09:57;10.60;96.50
54518;DHT22;40423;53.176;6.002;2023-03-01T14:15:57;10.50;96.70
54518;DHT22;40423;53.176;6.002;2023-03-01T14:18:30;10.40;96.30
54518;DHT22;40423;53.176;6.002;2023-03-01T14:20:58;10.20;96.00
54518;DHT22;40423;53.176;6.002;2023-03-01T14:23:24;10.20;96.70
54518;DHT22;40423;53.176;6.002;2023-03-01T14:25:57;10.20;96.70
54518;DHT22;40423;53.176;6.002;2023-03-01T14:28:29;10.10;96.40
54518;DHT22;40423;53.176;6.002;2023-03-01T14:30:58;10.00;96.70
54518;DHT22;40423;53.176;6.002;2023-03-01T14:35:59;9.70;96.70
54518;DHT22;40423;53.176;6.002;2023-03-01T14:41:06;9.50;97.50
54518;DHT22;40423;53.176;6.002;2023-03-01T14:43:33;9.30;97.50
54518;DHT22;40423;53.176;6.002;2023-03-01T14:46:00;9.10;97.50
54518;DHT22;40423;53.176;6.002;2023-03-01T14:48:28;9.10;98.10
54518;DHT22;40423;53.176;6.002;2023-03-01T14:50:54;9.10;98.20
54518;DHT22;40423;53.176;6.002;2023-03-01T14:53:29;9.10;98.10
54518;DHT22;40423;53.176;6.002;2023-03-01T14:55:56;9.10;98.30
54518;DHT22;40423;53.176;6.002;2023-03-01T14:58:24;9.00;97.60
54518;DHT22;40423;53.176;6.002;2023-03-01T15:01:02;8.90;98.10
54518;DHT22;40423;53.176;6.002;2023-03-01T15:03:35;8.90;98.40
54518;DHT22;40423;53.176;6.002;2023-03-01T15:06:03;8.80;98.20
54518;DHT22;40423;53.176;6.002;2023-03-01T15:08:31;8.80;98.50
54518;DHT22;40423;53.176;6.002;2023-03-01T15:11:20;8.80;98.60
54518;DHT22;40423;53.176;6.002;2023-03-01T15:13:48;8.70;98.60
54518;DHT22;40423;53.176;6.002;2023-03-01T15:16:16;8.70;98.70
54518;DHT22;40423;53.176;6.002;2023-03-01T15:18:49;8.60;98.50
54518;DHT22;40423;53.176;6.002;2023-03-01T15:21:25;8.60;98.60
54518;DHT22;40423;53.176;6.002;2023-03-01T15:23:55;8.60;98.90
54518;DHT22;40423;53.176;6.002;2023-03-01T15:26:29;8.50;99.00
54518;DHT22;40423;53.176;6.002;2023-03-01T15:28:57;8.50;99.10
54518;DHT22;40423;53.176;6.002;2023-03-01T15:31:36;8.50;99.30
54518;DHT22;40423;53.176;6.002;2023-03-01T15:34:21;8.50;99.70
54518;DHT22;40423;53.176;6.002;2023-03-01T15:36:48;8.40;99.70
54518;DHT22;40423;53.176;6.002;2023-03-01T15:39:40;8.40;99.90
54518;DHT22;40423;53.176;6.002;2023-03-01T15:42:35;8.30;99.90
54518;DHT22;40423;53.176;6.002;2023-03-01T15:47:48;8.20;99.90
54518;DHT22;40423;53.176;6.002;2023-03-01T15:50:32;8.20;99.90
54518;DHT22;40423;53.176;6.002;2023-03-01T15:53:00;8.10;99.90
54518;DHT22;40423;53.176;6.002;2023-03-01T15:55:31;8.10;99.90
54518;DHT22;40423;53.176;6.002;2023-03-01T15:58:18;8.10;99.90
54518;DHT22;40423;53.176;6.002;2023-03-01T16:00:47;8.10;99.90
54518;DHT22;40423;53.176;6.002;2023-03-01T16:03:14;8.00;99.90
54518;DHT22;40423;53.176;6.002;2023-03-01T16:05:50;7.90;99.90
54518;DHT22;40423;53.176;6.002;2023-03-01T16:08:17;7.90;99.90
54518;DHT22;40423;53.176;6.002;2023-03-01T16:10:43;7.80;99.90
54518;DHT22;40423;53.176;6.002;2023-03-01T16:13:14;7.80;99.90
54518;DHT22;40423;53.176;6.002;2023-03-01T16:15:40;7.80;99.90
54518;DHT22;40423;53.176;6.002;2023-03-01T16:18:06;7.80;99.90
54518;DHT22;40423;53.176;6.002;2023-03-01T16:20:33;7.70;99.90
54518;DHT22;40423;53.176;6.002;2023-03-01T16:23:04;7.70;99.90
54518;DHT22;40423;53.176;6.002;2023-03-01T16:25:31;7.60;99.90
54518;DHT22;40423;53.176;6.002;2023-03-01T16:27:57;7.60;99.90
54518;DHT22;40423;53.176;6.002;2023-03-01T16:30:26;7.60;99.90
54518;DHT22;40423;53.176;6.002;2023-03-01T16:32:52;7.50;99.90
54518;DHT22;40423;53.176;6.002;2023-03-01T16:35:20;7.40;99.90
54518;DHT22;40423;53.176;6.002;2023-03-01T16:37:46;7.40;99.90
54518;DHT22;40423;53.176;6.002;2023-03-01T16:42:47;7.30;99.90
54518;DHT22;40423;53.176;6.002;2023-03-01T16:45:13;7.30;99.90
54518;DHT22;40423;53.176;6.002;2023-03-01T16:47:39;7.30;99.90
54518;DHT22;40423;53.176;6.002;2023-03-01T16:50:05;7.10;99.90
54518;DHT22;40423;53.176;6.002;2023-03-01T16:52:30;7.10;99.90
54518;DHT22;40423;53.176;6.002;2023-03-01T16:54:56;7.10;99.90
54518;DHT22;40423;53.176;6.002;2023-03-01T16:57:22;7.00;99.90
54518;DHT22;40423;53.176;6.002;2023-03-01T16:59:53;7.00;99.90
54518;DHT22;40423;53.176;6.002;2023-03-01T17:02:19;6.90;99.90
54518;DHT22;40423;53.176;6.002;2023-03-01T17:04:51;6.80;99.90
54518;DHT22;40423;53.176;6.002;2023-03-01T17:07:17;6.80;99.90
54518;DHT22;40423;53.176;6.002;2023-03-01T17:09:42;6.70;99.90
54518;DHT22;40423;53.176;6.002;2023-03-01T17:12:08;6.70;99.90
54518;DHT22;40423;53.176;6.002;2023-03-01T17:14:37;6.70;99.90
54518;DHT22;40423;53.176;6.002;2023-03-01T17:17:03;6.60;99.90
54518;DHT22;40423;53.176;6.002;2023-03-01T17:19:29;6.60;99.90
54518;DHT22;40423;53.176;6.002;2023-03-01T17:21:57;6.50;99.90
54518;DHT22;40423;53.176;6.002;2023-03-01T17:24:22;6.40;99.90
54518;DHT22;40423;53.176;6.002;2023-03-01T17:26:48;6.40;99.90
54518;DHT22;40423;53.176;6.002;2023-03-01T17:29:14;6.30;99.90
54518;DHT22;40423;53.176;6.002;2023-03-01T17:31:42;6.30;99.90
54518;DHT22;40423;53.176;6.002;2023-03-01T17:34:08;6.20;99.90
54518;DHT22;40423;53.176;6.002;2023-03-01T17:36:34;6.20;99.90
54518;DHT22;40423;53.176;6.002;2023-03-01T17:39:09;6.10;99.90
54518;DHT22;40423;53.176;6.002;2023-03-01T17:41:35;6.10;99.90
54518;DHT22;40423;53.176;6.002;2023-03-01T17:44:00;6.10;99.90
54518;DHT22;40423;53.176;6.002;2023-03-01T17:46:26;6.00;99.90
54518;DHT22;40423;53.176;6.002;2023-03-01T17:48:52;6.00;99.90
54518;DHT22;40423;53.176;6.002;2023-03-01T17:51:17;5.90;99.90
54518;DHT22;40423;53.176;6.002;2023-03-01T17:53:43;5.90;99.90
54518;DHT22;40423;53.176;6.002;2023-03-01T17:56:09;5.80;99.90
54518;DHT22;40423;53.176;6.002;2023-03-01T17:58:36;5.80;99.90